createdAt,value
2023-03-08T00:01:24.464Z,60.95
2023-03-08T00:03:55.208Z,60.58
2023-03-08T00:06:29.888Z,60.06
2023-03-08T00:09:00.428Z,59.50
2023-03-08T00:11:29.738Z,60.06
2023-03-08T00:13:59.801Z,60.32
2023-03-08T00:16:28.080Z,60.75
2023-03-08T00:18:57.901Z,59.50
2023-03-08T00:21:28.501Z,59.71
2023-03-08T00:23:58.901Z,59.46
2023-03-08T00:26:29.333Z,58.93
2023-03-08T00:28:57.891Z,59.76
2023-03-08T00:31:29.904Z,59.65
2023-03-08T00:33:58.569Z,60.83
2023-03-08T00:36:29.512Z,60.41
2023-03-08T00:38:58.678Z,59.85
2023-03-08T00:41:36.999Z,58.96
2023-03-08T00:44:05.506Z,57.09
2023-03-08T00:46:33.968Z,56.94
2023-03-08T00:49:02.232Z,57.08
2023-03-08T00:51:34.761Z,56.74
2023-03-08T00:54:06.057Z,57.29
2023-03-08T00:56:34.208Z,58.73
2023-03-08T00:59:02.754Z,58.45
2023-03-08T01:01:30.992Z,58.78
2023-03-08T01:03:59.631Z,59.21
2023-03-08T01:06:28.120Z,59.84
2023-03-08T01:08:58.097Z,59.47
2023-03-08T01:11:28.022Z,58.51
2023-03-08T01:13:56.217Z,59.07
2023-03-08T01:16:25.701Z,59.15
2023-03-08T01:18:54.165Z,59.25
2023-03-08T01:21:23.252Z,57.80
2023-03-08T01:23:51.577Z,57.87
2023-03-08T01:26:22.625Z,58.05
2023-03-08T01:28:51.727Z,57.05
2023-03-08T01:31:21.728Z,56.88
2023-03-08T01:33:50.670Z,56.81
2023-03-08T01:36:20.201Z,55.97
2023-03-08T01:38:48.657Z,55.13
2023-03-08T01:41:18.800Z,54.93
2023-03-08T01:43:48.398Z,54.49
2023-03-08T01:46:20.456Z,54.21
2023-03-08T01:48:55.714Z,54.72
2023-03-08T01:51:31.310Z,54.78
2023-03-08T01:54:03.959Z,54.78
2023-03-08T01:56:32.005Z,55.93
2023-03-08T01:59:02.550Z,55.61
2023-03-08T02:01:30.606Z,55.79
2023-03-08T02:04:00.012Z,56.18
2023-03-08T02:06:29.853Z,56.72
2023-03-08T02:08:58.436Z,57.56
2023-03-08T02:11:26.935Z,57.30
2023-03-08T02:13:58.475Z,58.02
2023-03-08T02:16:27.853Z,57.83
2023-03-08T02:18:58.879Z,57.87
2023-03-08T02:21:27.424Z,57.79
2023-03-08T02:24:03.224Z,58.13
2023-03-08T02:26:31.440Z,57.62
2023-03-08T02:28:59.457Z,57.56
2023-03-08T02:31:27.879Z,57.97
2023-03-08T02:33:55.831Z,58.66
2023-03-08T02:36:28.222Z,59.12
2023-03-08T02:38:57.575Z,58.80
2023-03-08T02:41:25.689Z,59.07
2023-03-08T02:43:53.555Z,59.28
2023-03-08T02:46:21.584Z,58.99
2023-03-08T02:48:50.713Z,58.71
2023-03-08T02:51:18.620Z,58.87
2023-03-08T02:53:46.657Z,58.52
2023-03-08T02:56:15.867Z,59.12
2023-03-08T02:58:43.906Z,60.00
2023-03-08T03:01:13.683Z,59.48
2023-03-08T03:03:42.615Z,58.74
2023-03-08T03:06:15.833Z,59.78
2023-03-08T03:08:46.711Z,59.27
2023-03-08T03:11:18.397Z,58.79
2023-03-08T03:13:49.636Z,59.11
2023-03-08T03:16:18.273Z,59.00
2023-03-08T03:18:46.497Z,59.07
2023-03-08T03:21:15.480Z,59.22
2023-03-08T03:23:43.806Z,58.85
2023-03-08T03:26:18.489Z,58.13
2023-03-08T03:28:50.083Z,57.54
2023-03-08T03:31:20.800Z,58.10
2023-03-08T03:33:49.232Z,58.11
2023-03-08T03:36:19.881Z,58.60
2023-03-08T03:38:49.317Z,58.35
2023-03-08T03:41:21.213Z,57.61
2023-03-08T03:43:53.034Z,57.42
2023-03-08T03:46:23.225Z,57.03
2023-03-08T03:48:54.718Z,56.75
2023-03-08T03:51:24.327Z,57.25
2023-03-08T03:54:02.638Z,57.29
2023-03-08T03:56:32.562Z,56.69
2023-03-08T03:59:02.079Z,55.88
2023-03-08T04:01:31.861Z,55.52
2023-03-08T04:04:06.530Z,56.13
2023-03-08T04:06:38.348Z,55.52
2023-03-08T04:09:08.677Z,55.83
2023-03-08T04:11:41.454Z,55.24
2023-03-08T04:14:15.461Z,55.79
2023-03-08T04:16:44.165Z,55.49
2023-03-08T04:19:23.797Z,56.09
2023-03-08T04:21:56.787Z,55.73
2023-03-08T04:24:28.546Z,55.53
2023-03-08T04:27:01.796Z,55.07
2023-03-08T04:29:31.377Z,56.03
2023-03-08T04:32:00.352Z,55.36
2023-03-08T04:34:38.314Z,55.83
2023-03-08T04:37:07.153Z,56.03
2023-03-08T04:39:35.583Z,56.81
2023-03-08T04:42:05.001Z,56.68
2023-03-08T04:44:34.018Z,56.60
2023-03-08T04:47:04.347Z,57.14
2023-03-08T04:49:38.831Z,56.16
2023-03-08T04:52:07.328Z,56.79
2023-03-08T04:54:37.373Z,56.94
2023-03-08T04:57:13.894Z,55.63
2023-03-08T04:59:44.459Z,56.31
2023-03-08T05:02:13.902Z,55.26
2023-03-08T05:04:42.159Z,57.02
2023-03-08T05:07:10.098Z,57.21
2023-03-08T05:09:38.807Z,56.97
2023-03-08T05:12:07.456Z,55.95
2023-03-08T05:14:47.044Z,56.42
2023-03-08T05:17:15.414Z,56.12
2023-03-08T05:19:44.001Z,56.73
2023-03-08T05:22:14.102Z,57.19
2023-03-08T05:24:48.301Z,57.35
2023-03-08T05:27:17.721Z,55.63
2023-03-08T05:29:48.265Z,54.72
2023-03-08T05:32:17.225Z,54.52
2023-03-08T05:34:45.343Z,55.16
2023-03-08T05:37:19.778Z,55.43
2023-03-08T05:39:48.699Z,54.76
2023-03-08T05:42:20.971Z,54.78
2023-03-08T05:44:50.393Z,53.88
2023-03-08T05:47:23.079Z,53.72
2023-03-08T05:49:52.021Z,54.73
2023-03-08T05:52:20.777Z,54.24
2023-03-08T05:54:49.954Z,54.54
2023-03-08T05:57:20.293Z,55.08
2023-03-08T05:59:51.715Z,54.55
2023-03-08T06:02:23.134Z,54.63
2023-03-08T06:04:54.556Z,54.44
2023-03-08T06:07:24.630Z,53.74
2023-03-08T06:10:07.549Z,54.87
2023-03-08T06:12:35.522Z,54.17
2023-03-08T06:15:09.332Z,54.92
2023-03-08T06:17:38.647Z,54.94
2023-03-08T06:20:07.524Z,54.56
2023-03-08T06:22:38.801Z,54.10
2023-03-08T06:25:08.800Z,53.59
2023-03-08T06:27:38.237Z,54.65
2023-03-08T06:30:15.753Z,54.11
2023-03-08T06:32:44.042Z,53.34
2023-03-08T06:35:12.271Z,53.01
2023-03-08T06:37:47.313Z,52.03
2023-03-08T06:40:16.640Z,51.79
2023-03-08T06:42:44.544Z,52.57
2023-03-08T06:45:16.738Z,51.71
2023-03-08T06:47:44.621Z,50.92
2023-03-08T06:50:14.449Z,51.03
2023-03-08T06:52:45.536Z,51.13
2023-03-08T06:55:15.084Z,50.68
2023-03-08T06:57:43.365Z,51.71
2023-03-08T07:00:13.382Z,51.91
2023-03-08T07:02:42.864Z,50.92
2023-03-08T07:05:11.528Z,51.38
2023-03-08T07:07:40.147Z,51.80
2023-03-08T07:10:11.013Z,51.88
2023-03-08T07:12:40.283Z,53.23
2023-03-08T07:15:09.383Z,53.68
2023-03-08T07:17:37.650Z,53.32
2023-03-08T07:20:09.062Z,53.70
2023-03-08T07:22:37.241Z,53.23
2023-03-08T07:25:05.783Z,51.64
2023-03-08T07:27:34.135Z,51.67
2023-03-08T07:30:02.250Z,51.58
2023-03-08T07:32:30.432Z,50.37
2023-03-08T07:34:59.344Z,49.57
2023-03-08T07:37:28.912Z,49.34
2023-03-08T07:39:56.880Z,49.96
2023-03-08T07:42:24.713Z,48.58
2023-03-08T07:44:57.222Z,49.82
2023-03-08T07:47:25.030Z,49.71
2023-03-08T07:49:52.915Z,48.86
2023-03-08T07:52:20.875Z,48.50
2023-03-08T07:54:50.217Z,48.72
2023-03-08T07:57:18.187Z,47.57
2023-03-08T07:59:47.205Z,49.18
2023-03-08T08:02:16.395Z,49.12
2023-03-08T08:04:44.713Z,47.41
2023-03-08T08:07:14.711Z,46.29
2023-03-08T08:09:43.129Z,46.57
2023-03-08T08:12:12.578Z,47.90
2023-03-08T08:14:40.680Z,48.51
2023-03-08T08:17:08.909Z,47.33
2023-03-08T08:19:37.720Z,46.80
2023-03-08T08:22:06.225Z,47.08
2023-03-08T08:24:34.418Z,46.72
2023-03-08T08:27:02.648Z,47.87
2023-03-08T08:29:32.495Z,46.67
2023-03-08T08:32:00.804Z,44.94
2023-03-08T08:34:29.032Z,46.26
2023-03-08T08:36:57.336Z,46.94
2023-03-08T08:39:25.376Z,48.82
2023-03-08T08:41:53.435Z,49.19
2023-03-08T08:44:21.519Z,50.54
2023-03-08T08:46:50.805Z,49.29
2023-03-08T08:49:18.822Z,48.51
2023-03-08T08:51:46.728Z,46.17
2023-03-08T08:54:14.785Z,48.16
2023-03-08T08:56:43.636Z,47.53
2023-03-08T08:59:13.825Z,48.16
2023-03-08T09:01:43.945Z,47.03
2023-03-08T09:04:16.955Z,47.31
2023-03-08T09:06:45.205Z,48.00
2023-03-08T09:09:13.060Z,49.61
2023-03-08T09:11:53.673Z,47.84
2023-03-08T09:14:22.452Z,47.92
2023-03-08T09:16:50.547Z,46.15
2023-03-08T09:19:19.926Z,46.04
2023-03-08T09:21:47.874Z,46.26
2023-03-08T09:24:16.656Z,45.31
2023-03-08T09:26:44.789Z,44.20
2023-03-08T09:29:13.367Z,44.91
2023-03-08T09:31:42.454Z,46.70
2023-03-08T09:34:14.206Z,44.74
2023-03-08T09:36:43.874Z,44.15
2023-03-08T09:39:14.094Z,44.69
2023-03-08T09:41:58.438Z,46.77
2023-03-08T09:44:53.757Z,47.46
2023-03-08T09:47:31.391Z,45.44
2023-03-08T09:50:08.327Z,44.93
2023-03-08T09:52:42.151Z,44.66
2023-03-08T09:55:19.006Z,44.32
2023-03-08T09:57:52.568Z,43.94
2023-03-08T10:00:23.638Z,44.79
2023-03-08T10:03:02.685Z,47.62
2023-03-08T10:05:37.933Z,49.28
2023-03-08T10:08:14.504Z,49.54
2023-03-08T10:10:54.385Z,49.44
2023-03-08T10:13:34.733Z,47.88
2023-03-08T10:16:13.741Z,46.71
2023-03-08T10:18:46.654Z,47.80
2023-03-08T10:21:18.330Z,46.68
2023-03-08T10:23:50.076Z,46.92
2023-03-08T10:26:18.945Z,45.75
2023-03-08T10:28:47.130Z,45.17
2023-03-08T10:31:22.639Z,44.78
2023-03-08T10:33:54.925Z,44.44
2023-03-08T10:36:25.096Z,42.17
2023-03-08T10:39:12.308Z,44.17
2023-03-08T10:41:43.887Z,44.77
2023-03-08T10:44:16.583Z,45.14
2023-03-08T10:46:49.668Z,44.82
2023-03-08T10:49:20.245Z,44.10
2023-03-08T10:51:57.290Z,41.62
2023-03-08T10:54:27.779Z,42.05
2023-03-08T10:56:59.116Z,42.30
2023-03-08T10:59:32.422Z,42.09
2023-03-08T11:02:02.715Z,43.13
2023-03-08T11:04:31.808Z,44.44
2023-03-08T11:07:00.158Z,43.38
2023-03-08T11:09:31.258Z,44.56
2023-03-08T11:12:00.965Z,44.49
2023-03-08T11:14:30.108Z,42.83
2023-03-08T11:17:20.918Z,41.66
2023-03-08T11:20:11.597Z,41.77
2023-03-08T11:23:00.538Z,43.56
2023-03-08T11:25:37.764Z,42.26
2023-03-08T11:28:26.831Z,44.01
2023-03-08T11:31:05.280Z,46.32
2023-03-08T11:33:44.837Z,45.40
2023-03-08T11:36:18.551Z,45.77
2023-03-08T11:38:52.882Z,45.22
2023-03-08T11:41:27.890Z,43.73
2023-03-08T11:44:07.223Z,46.07
2023-03-08T11:46:50.200Z,44.68
2023-03-08T11:49:35.526Z,43.13
2023-03-08T11:52:15.088Z,42.49
2023-03-08T11:54:53.846Z,42.63
2023-03-08T11:57:28.857Z,43.74
2023-03-08T12:00:00.857Z,42.87
2023-03-08T12:02:31.510Z,45.57
2023-03-08T12:05:04.590Z,46.69
2023-03-08T12:07:37.392Z,45.16
2023-03-08T12:10:15.809Z,46.75
2023-03-08T12:12:49.677Z,46.59
2023-03-08T12:15:26.977Z,47.19
2023-03-08T12:17:59.676Z,44.80
2023-03-08T12:20:32.944Z,45.04
2023-03-08T12:23:05.388Z,45.43
2023-03-08T12:25:36.411Z,45.58
2023-03-08T12:28:13.475Z,45.24
2023-03-08T12:31:02.823Z,45.99
2023-03-08T12:33:32.464Z,45.79
2023-03-08T12:36:02.886Z,45.72
2023-03-08T12:38:34.844Z,47.63
2023-03-08T12:41:04.909Z,48.48
2023-03-08T12:43:36.081Z,49.57
2023-03-08T12:46:07.754Z,49.31
2023-03-08T12:48:38.904Z,50.86
2023-03-08T12:51:18.912Z,52.40
2023-03-08T12:53:58.178Z,52.10
2023-03-08T12:56:31.068Z,54.30
2023-03-08T12:59:01.915Z,56.47
2023-03-08T13:01:37.611Z,53.24
2023-03-08T13:04:07.828Z,52.76
2023-03-08T13:06:57.512Z,53.14
2023-03-08T13:09:29.541Z,53.18
2023-03-08T13:12:02.860Z,54.23
2023-03-08T13:14:43.464Z,53.58
2023-03-08T13:17:33.994Z,53.97
2023-03-08T13:20:07.864Z,52.85
2023-03-08T13:22:43.770Z,52.20
2023-03-08T13:25:28.092Z,52.44
2023-03-08T13:28:01.996Z,53.07
2023-03-08T13:30:34.753Z,53.86
2023-03-08T13:33:09.153Z,53.50
2023-03-08T13:35:37.259Z,54.23
2023-03-08T13:38:05.216Z,55.25
2023-03-08T13:40:33.424Z,57.00
2023-03-08T13:43:05.119Z,57.16
2023-03-08T13:45:34.450Z,55.54
2023-03-08T13:48:07.463Z,55.10
2023-03-08T13:50:38.835Z,55.58
2023-03-08T13:53:11.399Z,54.40
2023-03-08T13:55:43.222Z,57.88
2023-03-08T13:58:23.945Z,56.74
2023-03-08T14:01:02.350Z,57.84
2023-03-08T14:03:31.881Z,56.88
2023-03-08T14:06:00.109Z,55.88
2023-03-08T14:08:28.886Z,53.68
2023-03-08T14:11:00.661Z,54.38
2023-03-08T14:13:31.754Z,54.14
2023-03-08T14:16:03.010Z,55.51
2023-03-08T14:18:35.050Z,54.08
2023-03-08T14:21:09.022Z,53.61
2023-03-08T14:23:41.781Z,52.46
2023-03-08T14:26:25.566Z,54.99
2023-03-08T14:29:14.664Z,54.94
2023-03-08T14:31:59.315Z,56.10
2023-03-08T14:34:29.603Z,55.42
2023-03-08T14:36:59.861Z,55.31
2023-03-08T14:39:29.442Z,56.51
2023-03-08T14:41:57.966Z,55.25
2023-03-08T14:44:29.216Z,55.65
2023-03-08T14:47:08.963Z,54.58
2023-03-08T14:49:36.747Z,54.03
2023-03-08T14:52:04.753Z,54.47
2023-03-08T14:54:34.894Z,54.46
2023-03-08T14:57:16.440Z,53.79
2023-03-08T14:59:44.794Z,54.40
2023-03-08T15:02:15.483Z,54.82
2023-03-08T15:04:44.599Z,54.72
2023-03-08T15:07:19.024Z,53.84
2023-03-08T15:09:47.594Z,53.95
2023-03-08T15:12:18.277Z,54.04
2023-03-08T15:14:46.353Z,56.31
2023-03-08T15:17:15.519Z,56.68
2023-03-08T15:19:43.255Z,56.71
2023-03-08T15:22:15.259Z,56.51
2023-03-08T15:24:43.118Z,54.41
2023-03-08T15:27:15.449Z,54.81
2023-03-08T15:29:43.264Z,57.11
2023-03-08T15:32:11.688Z,58.27
2023-03-08T15:34:40.877Z,54.69
2023-03-08T15:37:14.293Z,54.73
2023-03-08T15:39:42.167Z,54.50
2023-03-08T15:42:09.899Z,54.73
2023-03-08T15:44:37.780Z,54.50
2023-03-08T15:47:05.850Z,57.53
2023-03-08T15:49:33.693Z,58.84
2023-03-08T15:52:02.825Z,59.71
2023-03-08T15:54:31.769Z,59.74
2023-03-08T15:56:59.475Z,58.10
2023-03-08T15:59:27.270Z,57.24
2023-03-08T16:01:55.096Z,59.42
2023-03-08T16:04:22.929Z,59.50
2023-03-08T16:06:50.736Z,61.02
2023-03-08T16:09:19.813Z,60.08
2023-03-08T16:11:48.248Z,59.50
2023-03-08T16:14:17.854Z,62.63
2023-03-08T16:16:46.268Z,60.68
2023-03-08T16:19:14.532Z,60.71
2023-03-08T16:21:42.315Z,60.85
2023-03-08T16:24:11.424Z,63.05
2023-03-08T16:26:40.552Z,62.83
2023-03-08T16:29:09.155Z,62.75
2023-03-08T16:31:37.053Z,62.17
2023-03-08T16:34:05.421Z,61.31
2023-03-08T16:36:33.712Z,64.00
2023-03-08T16:39:01.525Z,63.16
2023-03-08T16:41:30.068Z,63.27
2023-03-08T16:43:59.860Z,65.19
2023-03-08T16:46:27.860Z,66.44
2023-03-08T16:48:56.511Z,63.83
2023-03-08T16:51:26.632Z,60.90
2023-03-08T16:53:54.640Z,62.20
2023-03-08T16:56:24.101Z,62.49
2023-03-08T16:58:52.233Z,63.07
2023-03-08T17:01:22.071Z,61.00
2023-03-08T17:03:50.056Z,61.13
2023-03-08T17:06:21.245Z,60.21
2023-03-08T17:08:49.703Z,63.41
2023-03-08T17:11:18.820Z,61.42
2023-03-08T17:13:50.838Z,61.54
2023-03-08T17:16:19.346Z,62.40
2023-03-08T17:18:49.004Z,63.51
2023-03-08T17:21:17.302Z,61.07
2023-03-08T17:23:45.445Z,60.83
2023-03-08T17:26:15.045Z,59.91
2023-03-08T17:28:42.884Z,62.42
2023-03-08T17:31:12.187Z,63.52
2023-03-08T17:33:40.133Z,66.44
2023-03-08T17:36:10.360Z,65.34
2023-03-08T17:38:38.309Z,64.27
2023-03-08T17:41:07.248Z,63.45
2023-03-08T17:43:35.450Z,64.71
2023-03-08T17:46:05.994Z,64.74
2023-03-08T17:48:34.636Z,64.16
2023-03-08T17:51:03.574Z,63.32
2023-03-08T17:53:33.370Z,64.37
2023-03-08T17:56:01.844Z,64.13
2023-03-08T17:58:30.010Z,63.39
2023-03-08T18:00:58.207Z,64.31
2023-03-08T18:03:25.920Z,65.79
2023-03-08T18:05:54.247Z,64.86
2023-03-08T18:08:22.001Z,64.55
2023-03-08T18:10:51.074Z,66.16
2023-03-08T18:13:18.819Z,64.13
2023-03-08T18:15:46.602Z,65.32
2023-03-08T18:18:14.323Z,64.32
2023-03-08T18:20:42.108Z,64.58
2023-03-08T18:23:09.933Z,63.28
2023-03-08T18:25:39.484Z,62.47
2023-03-08T18:28:08.775Z,63.90
2023-03-08T18:30:38.659Z,64.69
2023-03-08T18:33:06.549Z,65.00
2023-03-08T18:35:34.391Z,65.49
2023-03-08T18:38:02.416Z,67.02
2023-03-08T18:40:30.291Z,65.16
2023-03-08T18:42:58.091Z,65.44
2023-03-08T18:45:27.332Z,66.90
2023-03-08T18:47:55.069Z,66.26
2023-03-08T18:50:25.014Z,65.00
2023-03-08T18:52:52.773Z,65.90
2023-03-08T18:55:20.635Z,67.14
2023-03-08T18:57:48.376Z,66.14
2023-03-08T19:00:17.406Z,67.04
2023-03-08T19:02:46.491Z,65.69
2023-03-08T19:05:14.288Z,64.74
2023-03-08T19:07:42.046Z,65.06
2023-03-08T19:10:14.646Z,66.05
2023-03-08T19:12:43.676Z,68.21
2023-03-08T19:15:12.491Z,66.77
2023-03-08T19:17:40.248Z,66.32
2023-03-08T19:20:11.226Z,65.91
2023-03-08T19:22:39.681Z,65.89
2023-03-08T19:25:08.304Z,63.81
2023-03-08T19:27:36.105Z,62.41
2023-03-08T19:30:04.580Z,66.89
2023-03-08T19:32:32.370Z,68.17
2023-03-08T19:35:01.694Z,65.63
2023-03-08T19:37:31.442Z,62.62
2023-03-08T19:40:01.288Z,64.60
2023-03-08T19:42:29.461Z,65.17
2023-03-08T19:44:57.257Z,62.70
2023-03-08T19:47:25.031Z,63.35
2023-03-08T19:49:53.151Z,61.91
2023-03-08T19:52:21.046Z,63.55
2023-03-08T19:54:50.182Z,62.08
2023-03-08T19:57:18.038Z,64.66
2023-03-08T19:59:45.791Z,66.04
2023-03-08T20:02:14.591Z,66.85
2023-03-08T20:04:45.040Z,68.52
2023-03-08T20:07:13.010Z,68.77
2023-03-08T20:09:42.257Z,68.05
2023-03-08T20:12:11.434Z,66.17
2023-03-08T20:14:39.251Z,63.04
2023-03-08T20:17:07.031Z,62.32
2023-03-08T20:19:35.708Z,60.86
2023-03-08T20:22:05.190Z,61.19
2023-03-08T20:24:33.174Z,61.71
2023-03-08T20:27:00.961Z,61.20
2023-03-08T20:29:30.213Z,60.07
2023-03-08T20:31:59.079Z,63.70
2023-03-08T20:34:27.405Z,62.40
2023-03-08T20:36:55.216Z,62.16
2023-03-08T20:39:23.604Z,61.82
2023-03-08T20:41:51.459Z,61.58
2023-03-08T20:44:19.160Z,62.96
2023-03-08T20:46:50.740Z,64.37
2023-03-08T20:49:18.420Z,66.70
2023-03-08T20:51:47.907Z,64.54
2023-03-08T20:54:15.689Z,62.96
2023-03-08T20:56:43.519Z,61.40
2023-03-08T20:59:11.283Z,65.14
2023-03-08T21:01:40.777Z,64.13
2023-03-08T21:04:09.958Z,63.49
2023-03-08T21:06:37.682Z,63.40
2023-03-08T21:09:05.490Z,62.83
2023-03-08T21:11:33.361Z,61.17
2023-03-08T21:14:01.206Z,61.24
2023-03-08T21:16:30.260Z,63.02
2023-03-08T21:18:59.786Z,65.23
2023-03-08T21:21:32.949Z,64.51
2023-03-08T21:24:02.202Z,64.17
2023-03-08T21:26:30.876Z,64.56
2023-03-08T21:29:02.061Z,61.89
2023-03-08T21:31:30.441Z,58.77
2023-03-08T21:33:58.634Z,61.09
2023-03-08T21:36:27.861Z,62.00
2023-03-08T21:38:57.423Z,63.32
2023-03-08T21:41:27.293Z,63.39
2023-03-08T21:43:55.658Z,62.18
2023-03-08T21:46:24.338Z,61.68
2023-03-08T21:48:52.363Z,62.09
2023-03-08T21:51:20.148Z,62.93
2023-03-08T21:53:49.564Z,63.10
2023-03-08T21:56:18.594Z,65.54
2023-03-08T21:58:46.726Z,66.58
2023-03-08T22:01:20.154Z,62.89
2023-03-08T22:03:48.532Z,64.68
2023-03-08T22:06:19.295Z,64.20
2023-03-08T22:08:49.436Z,65.05
2023-03-08T22:11:18.137Z,66.46
2023-03-08T22:13:50.093Z,63.01
2023-03-08T22:16:18.163Z,65.63
2023-03-08T22:18:46.292Z,64.47
2023-03-08T22:21:14.414Z,65.38
2023-03-08T22:23:42.130Z,62.95
2023-03-08T22:26:11.673Z,59.95
2023-03-08T22:28:39.519Z,61.05
2023-03-08T22:31:11.805Z,60.82
2023-03-08T22:33:39.811Z,61.31
2023-03-08T22:36:10.965Z,60.63
2023-03-08T22:38:39.613Z,62.98
2023-03-08T22:41:12.603Z,62.94
2023-03-08T22:43:41.142Z,62.88
2023-03-08T22:46:11.229Z,62.88
2023-03-08T22:48:38.957Z,60.61
2023-03-08T22:51:11.229Z,60.97
2023-03-08T22:53:39.607Z,64.72
2023-03-08T22:56:08.644Z,63.26
2023-03-08T22:58:37.720Z,63.85
2023-03-08T23:01:13.080Z,63.48
2023-03-08T23:03:40.860Z,62.54
2023-03-08T23:06:08.681Z,62.96
2023-03-08T23:08:36.492Z,62.27
2023-03-08T23:11:04.684Z,62.94
2023-03-08T23:13:34.294Z,61.27
2023-03-08T23:16:07.224Z,62.15
2023-03-08T23:18:35.398Z,61.94
2023-03-08T23:21:05.096Z,61.53
2023-03-08T23:23:32.857Z,60.54
2023-03-08T23:26:00.694Z,63.34
2023-03-08T23:28:28.388Z,64.13
2023-03-08T23:30:56.153Z,65.18
2023-03-08T23:33:25.339Z,63.43
2023-03-08T23:35:53.038Z,60.46
2023-03-08T23:38:20.814Z,63.32
2023-03-08T23:40:48.498Z,63.87
2023-03-08T23:43:16.159Z,65.38
2023-03-08T23:45:43.869Z,62.79
2023-03-08T23:48:11.880Z,63.14
2023-03-08T23:50:41.115Z,65.88
2023-03-08T23:53:08.914Z,63.84
2023-03-08T23:55:38.583Z,66.79
2023-03-08T23:58:06.429Z,65.98
